sensor_id;sensor_type;location;lat;lon;timestamp;P1;durP1;ratioP1;P2;durP2;ratioP2
9200;SDS011;4635;48.686;9.008;2023-02-21T00:02:43;10.87;;;4.90;;
9200;SDS011;4635;48.686;9.008;2023-02-21T00:05:30;5.10;;;3.67;;
9200;SDS011;4635;48.686;9.008;2023-02-21T00:08:25;8.93;;;4.40;;
9200;SDS011;4635;48.686;9.008;2023-02-21T00:11:13;5.90;;;3.97;;
9200;SDS011;4635;48.686;9.008;2023-02-21T00:13:59;5.87;;;4.30;;
9200;SDS011;4635;48.686;9.008;2023-02-21T00:16:46;4.13;;;3.23;;
9200;SDS011;4635;48.686;9.008;2023-02-21T00:19:32;7.00;;;4.23;;
9200;SDS011;4635;48.686;9.008;2023-02-21T00:22:21;9.37;;;4.43;;
9200;SDS011;4635;48.686;9.008;2023-02-21T00:25:12;8.00;;;3.93;;
9200;SDS011;4635;48.686;9.008;2023-02-21T00:28:01;9.50;;;4.83;;
9200;SDS011;4635;48.686;9.008;2023-02-21T00:30:55;10.27;;;4.47;;
9200;SDS011;4635;48.686;9.008;2023-02-21T00:33:41;10.70;;;4.77;;
9200;SDS011;4635;48.686;9.008;2023-02-21T00:36:28;9.33;;;4.73;;
9200;SDS011;4635;48.686;9.008;2023-02-21T00:39:14;8.87;;;4.57;;
9200;SDS011;4635;48.686;9.008;2023-02-21T00:42:10;6.47;;;4.50;;
9200;SDS011;4635;48.686;9.008;2023-02-21T00:44:57;10.20;;;4.07;;
9200;SDS011;4635;48.686;9.008;2023-02-21T00:47:44;11.43;;;5.20;;
9200;SDS011;4635;48.686;9.008;2023-02-21T00:50:36;7.40;;;4.20;;
9200;SDS011;4635;48.686;9.008;2023-02-21T00:53:23;5.83;;;4.03;;
9200;SDS011;4635;48.686;9.008;2023-02-21T00:56:11;7.37;;;4.67;;
9200;SDS011;4635;48.686;9.008;2023-02-21T00:59:03;7.20;;;4.47;;
9200;SDS011;4635;48.686;9.008;2023-02-21T01:01:51;4.50;;;3.83;;
9200;SDS011;4635;48.686;9.008;2023-02-21T01:04:37;10.07;;;4.70;;
9200;SDS011;4635;48.686;9.008;2023-02-21T01:07:26;6.77;;;4.63;;
9200;SDS011;4635;48.686;9.008;2023-02-21T01:10:12;15.60;;;4.70;;
9200;SDS011;4635;48.686;9.008;2023-02-21T01:13:00;10.83;;;5.20;;
9200;SDS011;4635;48.686;9.008;2023-02-21T01:15:49;14.10;;;4.90;;
9200;SDS011;4635;48.686;9.008;2023-02-21T01:18:39;8.53;;;4.73;;
9200;SDS011;4635;48.686;9.008;2023-02-21T01:21:25;10.53;;;5.33;;
9200;SDS011;4635;48.686;9.008;2023-02-21T01:24:14;9.93;;;4.93;;
9200;SDS011;4635;48.686;9.008;2023-02-21T01:27:04;18.93;;;5.53;;
9200;SDS011;4635;48.686;9.008;2023-02-21T01:29:51;8.13;;;4.90;;
9200;SDS011;4635;48.686;9.008;2023-02-21T01:35:45;11.90;;;4.60;;
9200;SDS011;4635;48.686;9.008;2023-02-21T01:38:34;5.43;;;3.70;;
9200;SDS011;4635;48.686;9.008;2023-02-21T01:41:23;6.80;;;4.77;;
9200;SDS011;4635;48.686;9.008;2023-02-21T01:44:30;12.50;;;4.33;;
9200;SDS011;4635;48.686;9.008;2023-02-21T01:47:21;5.27;;;4.17;;
9200;SDS011;4635;48.686;9.008;2023-02-21T01:50:13;8.77;;;4.30;;
9200;SDS011;4635;48.686;9.008;2023-02-21T01:53:04;8.00;;;4.50;;
9200;SDS011;4635;48.686;9.008;2023-02-21T01:56:02;9.77;;;4.40;;
9200;SDS011;4635;48.686;9.008;2023-02-21T01:58:51;5.80;;;3.77;;
9200;SDS011;4635;48.686;9.008;2023-02-21T02:01:41;8.07;;;3.70;;
9200;SDS011;4635;48.686;9.008;2023-02-21T02:04:34;9.50;;;4.33;;
9200;SDS011;4635;48.686;9.008;2023-02-21T02:07:31;13.50;;;4.40;;
9200;SDS011;4635;48.686;9.008;2023-02-21T02:10:17;8.70;;;4.10;;
9200;SDS011;4635;48.686;9.008;2023-02-21T02:13:09;11.57;;;4.87;;
9200;SDS011;4635;48.686;9.008;2023-02-21T02:15:51;14.80;;;4.40;;
9200;SDS011;4635;48.686;9.008;2023-02-21T02:18:34;10.50;;;4.20;;
9200;SDS011;4635;48.686;9.008;2023-02-21T02:24:41;9.77;;;4.47;;
9200;SDS011;4635;48.686;9.008;2023-02-21T02:27:43;8.40;;;4.63;;
9200;SDS011;4635;48.686;9.008;2023-02-21T02:36:59;5.13;;;3.70;;
9200;SDS011;4635;48.686;9.008;2023-02-21T02:39:50;5.60;;;3.30;;
9200;SDS011;4635;48.686;9.008;2023-02-21T02:42:30;13.33;;;3.57;;
9200;SDS011;4635;48.686;9.008;2023-02-21T02:45:09;7.03;;;3.80;;
9200;SDS011;4635;48.686;9.008;2023-02-21T02:47:49;11.03;;;4.13;;
9200;SDS011;4635;48.686;9.008;2023-02-21T02:50:30;7.93;;;4.10;;
9200;SDS011;4635;48.686;9.008;2023-02-21T02:53:20;8.40;;;4.23;;
9200;SDS011;4635;48.686;9.008;2023-02-21T02:56:01;5.40;;;3.97;;
9200;SDS011;4635;48.686;9.008;2023-02-21T02:58:33;6.80;;;3.90;;
9200;SDS011;4635;48.686;9.008;2023-02-21T03:01:14;4.83;;;3.97;;
9200;SDS011;4635;48.686;9.008;2023-02-21T03:04:07;7.03;;;4.37;;
9200;SDS011;4635;48.686;9.008;2023-02-21T03:07:00;10.47;;;3.87;;
9200;SDS011;4635;48.686;9.008;2023-02-21T03:09:51;5.20;;;3.90;;
9200;SDS011;4635;48.686;9.008;2023-02-21T03:12:33;7.50;;;4.30;;
9200;SDS011;4635;48.686;9.008;2023-02-21T03:15:11;6.07;;;4.10;;
9200;SDS011;4635;48.686;9.008;2023-02-21T03:17:50;9.03;;;3.90;;
9200;SDS011;4635;48.686;9.008;2023-02-21T03:20:30;8.13;;;3.60;;
9200;SDS011;4635;48.686;9.008;2023-02-21T03:23:04;9.57;;;3.80;;
9200;SDS011;4635;48.686;9.008;2023-02-21T03:25:39;4.07;;;3.00;;
9200;SDS011;4635;48.686;9.008;2023-02-21T03:28:14;10.20;;;3.03;;
9200;SDS011;4635;48.686;9.008;2023-02-21T03:30:46;6.20;;;3.33;;
9200;SDS011;4635;48.686;9.008;2023-02-21T03:33:21;4.17;;;3.77;;
9200;SDS011;4635;48.686;9.008;2023-02-21T03:35:52;5.13;;;3.73;;
9200;SDS011;4635;48.686;9.008;2023-02-21T03:38:26;11.03;;;3.17;;
9200;SDS011;4635;48.686;9.008;2023-02-21T03:41:00;8.27;;;3.67;;
9200;SDS011;4635;48.686;9.008;2023-02-21T03:43:34;7.67;;;4.00;;
9200;SDS011;4635;48.686;9.008;2023-02-21T03:46:06;8.87;;;3.83;;
9200;SDS011;4635;48.686;9.008;2023-02-21T03:48:39;7.60;;;4.20;;
9200;SDS011;4635;48.686;9.008;2023-02-21T03:51:15;6.43;;;3.53;;
9200;SDS011;4635;48.686;9.008;2023-02-21T03:53:47;9.70;;;4.20;;
9200;SDS011;4635;48.686;9.008;2023-02-21T03:56:21;4.30;;;3.70;;
9200;SDS011;4635;48.686;9.008;2023-02-21T03:59:01;12.10;;;3.70;;
9200;SDS011;4635;48.686;9.008;2023-02-21T04:01:32;9.80;;;4.60;;
9200;SDS011;4635;48.686;9.008;2023-02-21T04:04:02;4.50;;;3.20;;
9200;SDS011;4635;48.686;9.008;2023-02-21T04:06:36;8.20;;;4.37;;
9200;SDS011;4635;48.686;9.008;2023-02-21T04:09:06;6.40;;;3.50;;
9200;SDS011;4635;48.686;9.008;2023-02-21T04:11:43;6.10;;;4.23;;
9200;SDS011;4635;48.686;9.008;2023-02-21T04:14:14;8.57;;;3.30;;
9200;SDS011;4635;48.686;9.008;2023-02-21T04:16:48;5.10;;;3.70;;
9200;SDS011;4635;48.686;9.008;2023-02-21T04:19:19;6.67;;;3.73;;
9200;SDS011;4635;48.686;9.008;2023-02-21T04:22:03;9.43;;;3.83;;
9200;SDS011;4635;48.686;9.008;2023-02-21T04:24:33;6.23;;;4.80;;
9200;SDS011;4635;48.686;9.008;2023-02-21T04:27:09;23.07;;;4.83;;
9200;SDS011;4635;48.686;9.008;2023-02-21T04:29:45;5.33;;;3.70;;
9200;SDS011;4635;48.686;9.008;2023-02-21T04:32:15;7.90;;;3.57;;
9200;SDS011;4635;48.686;9.008;2023-02-21T04:34:55;11.70;;;3.83;;
9200;SDS011;4635;48.686;9.008;2023-02-21T04:37:28;4.87;;;3.40;;
9200;SDS011;4635;48.686;9.008;2023-02-21T04:40:02;5.70;;;3.80;;
9200;SDS011;4635;48.686;9.008;2023-02-21T04:42:44;9.83;;;3.57;;
9200;SDS011;4635;48.686;9.008;2023-02-21T04:45:21;11.50;;;3.93;;
9200;SDS011;4635;48.686;9.008;2023-02-21T04:47:56;5.47;;;3.90;;
9200;SDS011;4635;48.686;9.008;2023-02-21T04:50:31;11.20;;;4.60;;
9200;SDS011;4635;48.686;9.008;2023-02-21T04:53:03;10.57;;;4.37;;
9200;SDS011;4635;48.686;9.008;2023-02-21T04:55:34;8.57;;;5.17;;
9200;SDS011;4635;48.686;9.008;2023-02-21T04:58:11;12.93;;;5.23;;
9200;SDS011;4635;48.686;9.008;2023-02-21T05:00:48;11.30;;;4.80;;
9200;SDS011;4635;48.686;9.008;2023-02-21T05:03:28;8.43;;;4.37;;
9200;SDS011;4635;48.686;9.008;2023-02-21T05:06:04;8.27;;;4.27;;
9200;SDS011;4635;48.686;9.008;2023-02-21T05:12:10;7.40;;;4.17;;
9200;SDS011;4635;48.686;9.008;2023-02-21T05:17:58;12.17;;;4.40;;
9200;SDS011;4635;48.686;9.008;2023-02-21T05:20:39;7.30;;;3.90;;
9200;SDS011;4635;48.686;9.008;2023-02-21T05:23:26;7.00;;;4.03;;
9200;SDS011;4635;48.686;9.008;2023-02-21T05:26:24;7.10;;;3.90;;
9200;SDS011;4635;48.686;9.008;2023-02-21T05:29:08;5.43;;;4.07;;
9200;SDS011;4635;48.686;9.008;2023-02-21T05:31:41;4.90;;;3.60;;
9200;SDS011;4635;48.686;9.008;2023-02-21T05:34:17;6.13;;;3.23;;
9200;SDS011;4635;48.686;9.008;2023-02-21T05:36:51;4.40;;;3.23;;
9200;SDS011;4635;48.686;9.008;2023-02-21T05:39:39;3.30;;;3.00;;
9200;SDS011;4635;48.686;9.008;2023-02-21T05:42:12;16.57;;;3.93;;
9200;SDS011;4635;48.686;9.008;2023-02-21T05:44:57;11.97;;;4.00;;
9200;SDS011;4635;48.686;9.008;2023-02-21T05:47:41;4.93;;;3.40;;
9200;SDS011;4635;48.686;9.008;2023-02-21T05:50:31;7.67;;;2.93;;
9200;SDS011;4635;48.686;9.008;2023-02-21T05:53:07;7.23;;;3.67;;
9200;SDS011;4635;48.686;9.008;2023-02-21T05:55:47;8.70;;;3.80;;
9200;SDS011;4635;48.686;9.008;2023-02-21T05:58:22;10.90;;;4.03;;
9200;SDS011;4635;48.686;9.008;2023-02-21T06:00:54;20.43;;;5.30;;
9200;SDS011;4635;48.686;9.008;2023-02-21T06:03:25;101.30;;;11.30;;
9200;SDS011;4635;48.686;9.008;2023-02-21T06:06:04;70.80;;;8.87;;
9200;SDS011;4635;48.686;9.008;2023-02-21T06:08:44;66.80;;;6.73;;
9200;SDS011;4635;48.686;9.008;2023-02-21T06:11:25;28.17;;;5.30;;
9200;SDS011;4635;48.686;9.008;2023-02-21T06:14:35;97.37;;;10.00;;
9200;SDS011;4635;48.686;9.008;2023-02-21T06:17:46;112.03;;;9.83;;
9200;SDS011;4635;48.686;9.008;2023-02-21T06:24:19;63.40;;;7.87;;
9200;SDS011;4635;48.686;9.008;2023-02-21T06:27:21;35.03;;;6.90;;
9200;SDS011;4635;48.686;9.008;2023-02-21T06:29:58;74.10;;;9.60;;
9200;SDS011;4635;48.686;9.008;2023-02-21T06:33:01;56.40;;;7.73;;
9200;SDS011;4635;48.686;9.008;2023-02-21T06:36:03;34.13;;;6.93;;
9200;SDS011;4635;48.686;9.008;2023-02-21T06:38:57;32.93;;;5.13;;
9200;SDS011;4635;48.686;9.008;2023-02-21T06:44:32;80.23;;;10.37;;
9200;SDS011;4635;48.686;9.008;2023-02-21T06:47:12;50.90;;;8.13;;
9200;SDS011;4635;48.686;9.008;2023-02-21T06:53:39;20.90;;;6.17;;
9200;SDS011;4635;48.686;9.008;2023-02-21T06:56:27;20.97;;;5.10;;
9200;SDS011;4635;48.686;9.008;2023-02-21T06:59:26;24.10;;;5.70;;
9200;SDS011;4635;48.686;9.008;2023-02-21T07:02:16;12.33;;;5.30;;
9200;SDS011;4635;48.686;9.008;2023-02-21T07:04:59;9.67;;;4.70;;
9200;SDS011;4635;48.686;9.008;2023-02-21T07:07:39;28.37;;;10.00;;
9200;SDS011;4635;48.686;9.008;2023-02-21T07:10:43;10.63;;;4.90;;
9200;SDS011;4635;48.686;9.008;2023-02-21T07:13:33;20.30;;;5.10;;
9200;SDS011;4635;48.686;9.008;2023-02-21T07:16:30;11.50;;;5.40;;
9200;SDS011;4635;48.686;9.008;2023-02-21T07:19:14;11.00;;;5.70;;
9200;SDS011;4635;48.686;9.008;2023-02-21T07:22:01;8.50;;;6.30;;
9200;SDS011;4635;48.686;9.008;2023-02-21T07:24:44;15.67;;;5.20;;
9200;SDS011;4635;48.686;9.008;2023-02-21T07:28:00;18.27;;;5.97;;
9200;SDS011;4635;48.686;9.008;2023-02-21T07:30:51;9.53;;;4.50;;
9200;SDS011;4635;48.686;9.008;2023-02-21T07:37:01;15.00;;;5.50;;
9200;SDS011;4635;48.686;9.008;2023-02-21T07:40:00;7.03;;;5.23;;
9200;SDS011;4635;48.686;9.008;2023-02-21T07:42:43;21.13;;;6.70;;
9200;SDS011;4635;48.686;9.008;2023-02-21T07:45:20;40.50;;;8.87;;
9200;SDS011;4635;48.686;9.008;2023-02-21T07:48:11;21.60;;;5.73;;
9200;SDS011;4635;48.686;9.008;2023-02-21T07:51:00;19.00;;;6.10;;
9200;SDS011;4635;48.686;9.008;2023-02-21T07:53:41;8.23;;;5.90;;
9200;SDS011;4635;48.686;9.008;2023-02-21T07:56:27;20.60;;;6.43;;
9200;SDS011;4635;48.686;9.008;2023-02-21T07:59:14;19.13;;;6.00;;
9200;SDS011;4635;48.686;9.008;2023-02-21T08:02:43;8.70;;;5.30;;
9200;SDS011;4635;48.686;9.008;2023-02-21T08:05:40;32.07;;;7.77;;
9200;SDS011;4635;48.686;9.008;2023-02-21T08:08:24;12.67;;;5.20;;
9200;SDS011;4635;48.686;9.008;2023-02-21T08:11:17;10.20;;;6.30;;
9200;SDS011;4635;48.686;9.008;2023-02-21T08:13:55;10.10;;;6.13;;
9200;SDS011;4635;48.686;9.008;2023-02-21T08:16:47;16.17;;;6.60;;
9200;SDS011;4635;48.686;9.008;2023-02-21T08:19:48;29.00;;;7.67;;
9200;SDS011;4635;48.686;9.008;2023-02-21T08:22:57;16.80;;;6.87;;
9200;SDS011;4635;48.686;9.008;2023-02-21T08:25:40;17.17;;;6.20;;
9200;SDS011;4635;48.686;9.008;2023-02-21T08:28:24;16.37;;;8.27;;
9200;SDS011;4635;48.686;9.008;2023-02-21T08:31:03;29.43;;;8.77;;
9200;SDS011;4635;48.686;9.008;2023-02-21T08:33:41;17.53;;;6.53;;
9200;SDS011;4635;48.686;9.008;2023-02-21T08:36:19;12.83;;;6.17;;
9200;SDS011;4635;48.686;9.008;2023-02-21T08:39:12;22.97;;;6.90;;
9200;SDS011;4635;48.686;9.008;2023-02-21T08:42:00;20.67;;;6.20;;
9200;SDS011;4635;48.686;9.008;2023-02-21T08:44:52;16.73;;;6.03;;
9200;SDS011;4635;48.686;9.008;2023-02-21T08:47:35;26.37;;;7.93;;
9200;SDS011;4635;48.686;9.008;2023-02-21T08:50:26;24.43;;;4.87;;
9200;SDS011;4635;48.686;9.008;2023-02-21T08:53:42;11.00;;;4.50;;
9200;SDS011;4635;48.686;9.008;2023-02-21T08:56:31;42.10;;;16.10;;
9200;SDS011;4635;48.686;9.008;2023-02-21T08:59:13;16.83;;;4.90;;
9200;SDS011;4635;48.686;9.008;2023-02-21T09:02:01;21.87;;;5.47;;
9200;SDS011;4635;48.686;9.008;2023-02-21T09:04:43;6.30;;;4.40;;
9200;SDS011;4635;48.686;9.008;2023-02-21T09:07:55;22.13;;;7.17;;
9200;SDS011;4635;48.686;9.008;2023-02-21T09:16:19;23.43;;;6.60;;
9200;SDS011;4635;48.686;9.008;2023-02-21T09:22:14;9.37;;;3.57;;
9200;SDS011;4635;48.686;9.008;2023-02-21T09:25:04;7.63;;;3.77;;
9200;SDS011;4635;48.686;9.008;2023-02-21T09:34:02;22.93;;;4.30;;
9200;SDS011;4635;48.686;9.008;2023-02-21T09:40:33;8.73;;;5.13;;
9200;SDS011;4635;48.686;9.008;2023-02-21T09:43:36;9.57;;;4.47;;
9200;SDS011;4635;48.686;9.008;2023-02-21T09:46:39;12.30;;;3.57;;
9200;SDS011;4635;48.686;9.008;2023-02-21T09:49:44;16.63;;;4.20;;
9200;SDS011;4635;48.686;9.008;2023-02-21T09:52:55;7.70;;;3.73;;
9200;SDS011;4635;48.686;9.008;2023-02-21T09:56:01;18.27;;;4.10;;
9200;SDS011;4635;48.686;9.008;2023-02-21T09:58:45;11.60;;;6.07;;
9200;SDS011;4635;48.686;9.008;2023-02-21T10:01:27;7.23;;;3.13;;
9200;SDS011;4635;48.686;9.008;2023-02-21T10:14:42;7.43;;;1.90;;
9200;SDS011;4635;48.686;9.008;2023-02-21T10:17:51;8.23;;;3.00;;
9200;SDS011;4635;48.686;9.008;2023-02-21T10:20:56;7.60;;;3.30;;
9200;SDS011;4635;48.686;9.008;2023-02-21T10:23:45;12.63;;;3.53;;
9200;SDS011;4635;48.686;9.008;2023-02-21T10:26:30;1.83;;;1.73;;
9200;SDS011;4635;48.686;9.008;2023-02-21T10:29:09;6.50;;;3.63;;
9200;SDS011;4635;48.686;9.008;2023-02-21T10:35:09;5.07;;;2.30;;
9200;SDS011;4635;48.686;9.008;2023-02-21T10:38:07;9.60;;;2.73;;
9200;SDS011;4635;48.686;9.008;2023-02-21T10:41:03;10.93;;;2.40;;
9200;SDS011;4635;48.686;9.008;2023-02-21T10:44:11;4.60;;;2.10;;
9200;SDS011;4635;48.686;9.008;2023-02-21T10:47:01;2.40;;;1.40;;
9200;SDS011;4635;48.686;9.008;2023-02-21T10:49:51;2.47;;;1.20;;
9200;SDS011;4635;48.686;9.008;2023-02-21T10:52:45;5.33;;;1.50;;
9200;SDS011;4635;48.686;9.008;2023-02-21T10:55:35;6.20;;;2.20;;
9200;SDS011;4635;48.686;9.008;2023-02-21T10:58:39;3.30;;;1.27;;
9200;SDS011;4635;48.686;9.008;2023-02-21T11:01:30;7.47;;;1.83;;
9200;SDS011;4635;48.686;9.008;2023-02-21T11:04:35;5.90;;;2.60;;
9200;SDS011;4635;48.686;9.008;2023-02-21T11:07:16;1.40;;;1.00;;
9200;SDS011;4635;48.686;9.008;2023-02-21T11:20:03;3.30;;;1.30;;
9200;SDS011;4635;48.686;9.008;2023-02-21T11:22:59;3.53;;;1.47;;
9200;SDS011;4635;48.686;9.008;2023-02-21T11:25:43;2.67;;;1.20;;
9200;SDS011;4635;48.686;9.008;2023-02-21T11:28:33;2.60;;;0.87;;
9200;SDS011;4635;48.686;9.008;2023-02-21T11:31:58;3.47;;;1.40;;
9200;SDS011;4635;48.686;9.008;2023-02-21T11:37:47;1.10;;;1.00;;
9200;SDS011;4635;48.686;9.008;2023-02-21T11:40:50;1.80;;;1.00;;
9200;SDS011;4635;48.686;9.008;2023-02-21T11:46:45;1.73;;;1.43;;
9200;SDS011;4635;48.686;9.008;2023-02-21T11:59:58;2.03;;;1.33;;
9200;SDS011;4635;48.686;9.008;2023-02-21T12:03:05;16.20;;;6.00;;
9200;SDS011;4635;48.686;9.008;2023-02-21T12:06:10;5.80;;;1.23;;
9200;SDS011;4635;48.686;9.008;2023-02-21T12:09:18;2.40;;;1.37;;
9200;SDS011;4635;48.686;9.008;2023-02-21T12:12:27;2.77;;;1.27;;
9200;SDS011;4635;48.686;9.008;2023-02-21T12:25:07;5.13;;;1.37;;
9200;SDS011;4635;48.686;9.008;2023-02-21T12:28:39;5.67;;;1.13;;
9200;SDS011;4635;48.686;9.008;2023-02-21T12:31:29;1.17;;;0.83;;
9200;SDS011;4635;48.686;9.008;2023-02-21T12:34:29;9.83;;;3.60;;
9200;SDS011;4635;48.686;9.008;2023-02-21T12:37:43;2.80;;;0.63;;
9200;SDS011;4635;48.686;9.008;2023-02-21T12:40:37;1.37;;;0.80;;
9200;SDS011;4635;48.686;9.008;2023-02-21T12:43:50;13.30;;;0.73;;
9200;SDS011;4635;48.686;9.008;2023-02-21T12:46:34;2.93;;;1.23;;
9200;SDS011;4635;48.686;9.008;2023-02-21T12:49:49;2.33;;;1.27;;
9200;SDS011;4635;48.686;9.008;2023-02-21T12:52:41;1.93;;;0.93;;
9200;SDS011;4635;48.686;9.008;2023-02-21T12:55:28;5.07;;;1.47;;
9200;SDS011;4635;48.686;9.008;2023-02-21T12:58:22;1.10;;;1.00;;
9200;SDS011;4635;48.686;9.008;2023-02-21T13:01:05;3.27;;;1.00;;
9200;SDS011;4635;48.686;9.008;2023-02-21T13:03:49;3.30;;;1.10;;
9200;SDS011;4635;48.686;9.008;2023-02-21T13:06:41;1.13;;;0.60;;
9200;SDS011;4635;48.686;9.008;2023-02-21T13:09:49;1.20;;;0.60;;
9200;SDS011;4635;48.686;9.008;2023-02-21T13:16:09;5.90;;;0.80;;
9200;SDS011;4635;48.686;9.008;2023-02-21T13:18:49;1.83;;;0.70;;
9200;SDS011;4635;48.686;9.008;2023-02-21T13:24:53;1.17;;;0.60;;
9200;SDS011;4635;48.686;9.008;2023-02-21T13:27:58;1.60;;;0.70;;
9200;SDS011;4635;48.686;9.008;2023-02-21T13:31:05;4.00;;;1.93;;
9200;SDS011;4635;48.686;9.008;2023-02-21T13:58:59;1.63;;;0.90;;
9200;SDS011;4635;48.686;9.008;2023-02-21T14:02:29;1.67;;;1.13;;
9200;SDS011;4635;48.686;9.008;2023-02-21T14:32:49;6.63;;;1.87;;
9200;SDS011;4635;48.686;9.008;2023-02-21T14:35:33;12.30;;;2.10;;
9200;SDS011;4635;48.686;9.008;2023-02-21T14:39:03;6.03;;;2.77;;
9200;SDS011;4635;48.686;9.008;2023-02-21T14:42:45;18.90;;;2.90;;
9200;SDS011;4635;48.686;9.008;2023-02-21T14:45:48;2.03;;;1.23;;
9200;SDS011;4635;48.686;9.008;2023-02-21T15:05:42;2.50;;;0.90;;
9200;SDS011;4635;48.686;9.008;2023-02-21T15:09:20;22.23;;;5.60;;
9200;SDS011;4635;48.686;9.008;2023-02-21T15:12:12;14.47;;;3.40;;
9200;SDS011;4635;48.686;9.008;2023-02-21T15:14:55;11.00;;;2.03;;
9200;SDS011;4635;48.686;9.008;2023-02-21T15:18:55;4.80;;;3.07;;
9200;SDS011;4635;48.686;9.008;2023-02-21T15:21:05;41.87;;;22.23;;
9200;SDS011;4635;48.686;9.008;2023-02-21T15:34:17;6.70;;;1.20;;
9200;SDS011;4635;48.686;9.008;2023-02-21T15:37:28;5.43;;;1.70;;
9200;SDS011;4635;48.686;9.008;2023-02-21T15:40:31;18.97;;;6.43;;
9200;SDS011;4635;48.686;9.008;2023-02-21T15:46:30;5.10;;;1.60;;
9200;SDS011;4635;48.686;9.008;2023-02-21T15:49:39;15.70;;;3.00;;
9200;SDS011;4635;48.686;9.008;2023-02-21T15:52:27;5.77;;;2.80;;
9200;SDS011;4635;48.686;9.008;2023-02-21T15:55:27;6.77;;;3.07;;
9200;SDS011;4635;48.686;9.008;2023-02-21T15:58:21;6.37;;;2.50;;
9200;SDS011;4635;48.686;9.008;2023-02-21T16:11:45;32.33;;;8.87;;
9200;SDS011;4635;48.686;9.008;2023-02-21T16:15:17;13.67;;;2.40;;
9200;SDS011;4635;48.686;9.008;2023-02-21T16:18:10;12.43;;;2.00;;
9200;SDS011;4635;48.686;9.008;2023-02-21T16:27:41;5.43;;;2.20;;
9200;SDS011;4635;48.686;9.008;2023-02-21T16:33:40;16.87;;;2.97;;
9200;SDS011;4635;48.686;9.008;2023-02-21T16:36:32;10.60;;;2.43;;
9200;SDS011;4635;48.686;9.008;2023-02-21T16:39:08;12.00;;;3.53;;
9200;SDS011;4635;48.686;9.008;2023-02-21T16:42:03;18.83;;;2.43;;
9200;SDS011;4635;48.686;9.008;2023-02-21T16:44:57;29.77;;;7.93;;
9200;SDS011;4635;48.686;9.008;2023-02-21T16:47:44;21.20;;;3.67;;
9200;SDS011;4635;48.686;9.008;2023-02-21T16:51:00;14.73;;;3.43;;
9200;SDS011;4635;48.686;9.008;2023-02-21T16:53:41;20.40;;;5.40;;
9200;SDS011;4635;48.686;9.008;2023-02-21T16:56:35;26.10;;;3.50;;
9200;SDS011;4635;48.686;9.008;2023-02-21T17:12:30;16.83;;;6.70;;
9200;SDS011;4635;48.686;9.008;2023-02-21T17:15:32;10.10;;;4.00;;
9200;SDS011;4635;48.686;9.008;2023-02-21T17:18:17;8.97;;;4.17;;
9200;SDS011;4635;48.686;9.008;2023-02-21T17:24:11;7.53;;;3.60;;
9200;SDS011;4635;48.686;9.008;2023-02-21T17:30:29;12.00;;;3.00;;
9200;SDS011;4635;48.686;9.008;2023-02-21T17:33:15;10.47;;;3.50;;
9200;SDS011;4635;48.686;9.008;2023-02-21T17:35:57;21.70;;;4.00;;
9200;SDS011;4635;48.686;9.008;2023-02-21T17:38:35;18.43;;;4.67;;
9200;SDS011;4635;48.686;9.008;2023-02-21T17:41:49;19.57;;;3.77;;
9200;SDS011;4635;48.686;9.008;2023-02-21T17:44:41;12.17;;;4.37;;
9200;SDS011;4635;48.686;9.008;2023-02-21T17:47:40;25.97;;;7.60;;
9200;SDS011;4635;48.686;9.008;2023-02-21T17:50:34;12.90;;;5.47;;
9200;SDS011;4635;48.686;9.008;2023-02-21T17:53:36;18.33;;;5.30;;
9200;SDS011;4635;48.686;9.008;2023-02-21T17:56:18;34.60;;;5.80;;
9200;SDS011;4635;48.686;9.008;2023-02-21T17:59:22;18.13;;;5.27;;
9200;SDS011;4635;48.686;9.008;2023-02-21T18:02:19;24.63;;;5.77;;
9200;SDS011;4635;48.686;9.008;2023-02-21T18:05:01;20.93;;;4.53;;
9200;SDS011;4635;48.686;9.008;2023-02-21T18:10:56;22.53;;;5.33;;
9200;SDS011;4635;48.686;9.008;2023-02-21T18:13:48;12.27;;;4.30;;
9200;SDS011;4635;48.686;9.008;2023-02-21T18:16:51;8.87;;;4.23;;
9200;SDS011;4635;48.686;9.008;2023-02-21T18:19:27;31.50;;;5.90;;
9200;SDS011;4635;48.686;9.008;2023-02-21T18:21:58;21.57;;;8.23;;
9200;SDS011;4635;48.686;9.008;2023-02-21T18:24:41;19.53;;;6.13;;
9200;SDS011;4635;48.686;9.008;2023-02-21T18:27:39;14.70;;;7.90;;
9200;SDS011;4635;48.686;9.008;2023-02-21T18:30:18;37.17;;;7.83;;
9200;SDS011;4635;48.686;9.008;2023-02-21T18:33:01;25.33;;;6.93;;
9200;SDS011;4635;48.686;9.008;2023-02-21T18:35:37;19.93;;;6.63;;
9200;SDS011;4635;48.686;9.008;2023-02-21T18:38:12;15.53;;;5.40;;
9200;SDS011;4635;48.686;9.008;2023-02-21T18:40:58;17.23;;;4.70;;
9200;SDS011;4635;48.686;9.008;2023-02-21T18:43:38;11.37;;;4.80;;
9200;SDS011;4635;48.686;9.008;2023-02-21T18:46:22;18.97;;;5.77;;
9200;SDS011;4635;48.686;9.008;2023-02-21T18:48:56;9.20;;;4.50;;
9200;SDS011;4635;48.686;9.008;2023-02-21T18:51:32;17.03;;;6.30;;
9200;SDS011;4635;48.686;9.008;2023-02-21T18:54:04;11.23;;;4.63;;
9200;SDS011;4635;48.686;9.008;2023-02-21T18:56:36;19.93;;;5.67;;
9200;SDS011;4635;48.686;9.008;2023-02-21T18:59:17;14.03;;;5.67;;
9200;SDS011;4635;48.686;9.008;2023-02-21T19:02:01;18.20;;;7.83;;
9200;SDS011;4635;48.686;9.008;2023-02-21T19:04:48;18.77;;;5.63;;
9200;SDS011;4635;48.686;9.008;2023-02-21T19:10:43;24.23;;;6.40;;
9200;SDS011;4635;48.686;9.008;2023-02-21T19:13:22;14.73;;;6.80;;
9200;SDS011;4635;48.686;9.008;2023-02-21T19:15:58;13.00;;;5.87;;
9200;SDS011;4635;48.686;9.008;2023-02-21T19:18:36;19.97;;;5.70;;
9200;SDS011;4635;48.686;9.008;2023-02-21T19:21:29;25.83;;;6.50;;
9200;SDS011;4635;48.686;9.008;2023-02-21T19:24:05;20.53;;;5.90;;
9200;SDS011;4635;48.686;9.008;2023-02-21T19:26:45;16.10;;;5.80;;
9200;SDS011;4635;48.686;9.008;2023-02-21T19:29:16;10.80;;;6.17;;
9200;SDS011;4635;48.686;9.008;2023-02-21T19:31:47;9.80;;;6.17;;
9200;SDS011;4635;48.686;9.008;2023-02-21T19:34:19;20.83;;;5.50;;
9200;SDS011;4635;48.686;9.008;2023-02-21T19:36:52;13.90;;;5.97;;
9200;SDS011;4635;48.686;9.008;2023-02-21T19:39:27;22.00;;;5.40;;
9200;SDS011;4635;48.686;9.008;2023-02-21T19:42:01;12.43;;;5.50;;
9200;SDS011;4635;48.686;9.008;2023-02-21T19:44:32;16.60;;;5.63;;
9200;SDS011;4635;48.686;9.008;2023-02-21T19:47:05;10.90;;;5.33;;
9200;SDS011;4635;48.686;9.008;2023-02-21T19:49:37;8.27;;;5.03;;
9200;SDS011;4635;48.686;9.008;2023-02-21T19:52:13;12.03;;;6.00;;
9200;SDS011;4635;48.686;9.008;2023-02-21T19:54:50;7.40;;;5.07;;
9200;SDS011;4635;48.686;9.008;2023-02-21T19:57:22;20.73;;;8.60;;
9200;SDS011;4635;48.686;9.008;2023-02-21T19:59:55;23.23;;;7.33;;
9200;SDS011;4635;48.686;9.008;2023-02-21T20:02:34;18.30;;;7.87;;
9200;SDS011;4635;48.686;9.008;2023-02-21T20:05:09;33.10;;;9.40;;
9200;SDS011;4635;48.686;9.008;2023-02-21T20:07:51;23.30;;;9.47;;
9200;SDS011;4635;48.686;9.008;2023-02-21T20:10:27;25.33;;;6.63;;
9200;SDS011;4635;48.686;9.008;2023-02-21T20:13:05;18.73;;;7.67;;
9200;SDS011;4635;48.686;9.008;2023-02-21T20:15:36;16.77;;;7.00;;
9200;SDS011;4635;48.686;9.008;2023-02-21T20:18:07;12.80;;;6.77;;
9200;SDS011;4635;48.686;9.008;2023-02-21T20:21:03;22.33;;;6.60;;
9200;SDS011;4635;48.686;9.008;2023-02-21T20:23:51;11.13;;;5.73;;
9200;SDS011;4635;48.686;9.008;2023-02-21T20:26:33;17.40;;;6.33;;
9200;SDS011;4635;48.686;9.008;2023-02-21T20:29:05;11.83;;;5.57;;
9200;SDS011;4635;48.686;9.008;2023-02-21T20:31:45;13.63;;;5.57;;
9200;SDS011;4635;48.686;9.008;2023-02-21T20:34:20;14.80;;;6.73;;
9200;SDS011;4635;48.686;9.008;2023-02-21T20:36:55;11.00;;;6.20;;
9200;SDS011;4635;48.686;9.008;2023-02-21T20:39:28;12.83;;;6.63;;
9200;SDS011;4635;48.686;9.008;2023-02-21T20:42:08;16.07;;;7.60;;
9200;SDS011;4635;48.686;9.008;2023-02-21T20:44:40;10.00;;;5.90;;
9200;SDS011;4635;48.686;9.008;2023-02-21T20:47:26;20.00;;;6.87;;
9200;SDS011;4635;48.686;9.008;2023-02-21T20:50:15;26.30;;;7.07;;
9200;SDS011;4635;48.686;9.008;2023-02-21T20:52:52;19.83;;;5.70;;
9200;SDS011;4635;48.686;9.008;2023-02-21T20:55:25;16.40;;;7.20;;
9200;SDS011;4635;48.686;9.008;2023-02-21T20:58:06;14.27;;;5.93;;
9200;SDS011;4635;48.686;9.008;2023-02-21T21:00:41;16.40;;;7.00;;
9200;SDS011;4635;48.686;9.008;2023-02-21T21:03:14;19.17;;;7.33;;
9200;SDS011;4635;48.686;9.008;2023-02-21T21:05:49;13.07;;;7.40;;
9200;SDS011;4635;48.686;9.008;2023-02-21T21:08:26;20.53;;;6.73;;
9200;SDS011;4635;48.686;9.008;2023-02-21T21:11:04;21.90;;;7.80;;